createdAt,value
2017-08-25T00:00:34.572Z,18.60
2017-08-25T00:03:02.976Z,18.50
2017-08-25T00:05:31.096Z,18.50
2017-08-25T00:07:58.695Z,18.40
2017-08-25T00:10:26.265Z,18.50
2017-08-25T00:12:53.843Z,18.60
2017-08-25T00:15:21.547Z,18.60
2017-08-25T00:17:49.132Z,18.60
2017-08-25T00:20:16.792Z,18.60
2017-08-25T00:22:44.882Z,18.50
2017-08-25T00:25:12.479Z,18.40
2017-08-25T00:27:40.830Z,18.40
2017-08-25T00:30:08.430Z,18.30
2017-08-25T00:32:36.060Z,18.40
2017-08-25T00:35:04.339Z,18.40
2017-08-25T00:37:31.911Z,18.40
2017-08-25T00:39:59.516Z,18.40
2017-08-25T00:42:27.079Z,18.50
2017-08-25T00:44:54.873Z,19.10
2017-08-25T00:47:22.439Z,19.40
2017-08-25T00:49:50.740Z,19.30
2017-08-25T00:52:18.340Z,19.30
2017-08-25T00:54:45.980Z,19.00
2017-08-25T00:57:13.588Z,18.60
2017-08-25T00:59:41.168Z,18.40
2017-08-25T01:02:09.703Z,18.50
2017-08-25T01:04:37.420Z,18.80
2017-08-25T01:07:04.999Z,18.90
2017-08-25T01:09:32.692Z,18.70
2017-08-25T01:12:00.316Z,18.60
2017-08-25T01:14:28.792Z,18.40
2017-08-25T01:16:56.487Z,18.30
2017-08-25T01:19:24.118Z,18.30
2017-08-25T01:21:51.697Z,18.30
2017-08-25T01:24:19.279Z,18.40
2017-08-25T01:26:46.912Z,18.90
2017-08-25T01:29:14.550Z,19.30
2017-08-25T01:31:42.283Z,19.30
2017-08-25T01:34:09.912Z,19.00
2017-08-25T01:36:37.492Z,18.70
2017-08-25T01:39:05.247Z,18.60
2017-08-25T01:41:32.833Z,18.50
2017-08-25T01:44:00.484Z,18.50
2017-08-25T01:46:28.607Z,19.10
2017-08-25T01:48:56.216Z,18.90
2017-08-25T01:51:24.760Z,18.70
2017-08-25T01:53:52.340Z,18.60
2017-08-25T01:56:19.906Z,18.50
2017-08-25T01:58:47.508Z,18.60
2017-08-25T02:01:15.124Z,18.50
2017-08-25T02:03:42.721Z,18.50
2017-08-25T02:06:10.319Z,18.50
2017-08-25T02:08:37.874Z,18.50
2017-08-25T02:11:05.454Z,18.70
2017-08-25T02:13:33.022Z,19.20
2017-08-25T02:16:00.647Z,19.40
2017-08-25T02:18:28.211Z,19.10
2017-08-25T02:20:55.787Z,18.90
2017-08-25T02:23:23.375Z,18.80
2017-08-25T02:25:50.950Z,18.70
2017-08-25T02:28:18.559Z,18.70
2017-08-25T02:30:47.301Z,18.90
2017-08-25T02:33:15.781Z,18.70
2017-08-25T02:35:43.372Z,18.90
2017-08-25T02:38:10.956Z,18.60
2017-08-25T02:40:38.586Z,18.50
2017-08-25T02:43:06.816Z,18.70
2017-08-25T02:45:34.527Z,18.80
2017-08-25T02:48:02.132Z,18.70
2017-08-25T02:50:29.910Z,18.70
2017-08-25T02:52:57.536Z,18.50
2017-08-25T02:55:25.122Z,18.30
2017-08-25T02:57:53.628Z,18.20
2017-08-25T03:00:21.228Z,18.20
2017-08-25T03:02:48.828Z,18.30
2017-08-25T03:05:16.426Z,18.50
2017-08-25T03:07:43.990Z,18.90
2017-08-25T03:10:11.588Z,19.10
2017-08-25T03:12:39.168Z,19.30
2017-08-25T03:15:06.772Z,19.30
2017-08-25T03:17:34.623Z,19.30
2017-08-25T03:20:02.245Z,18.90
2017-08-25T03:22:29.844Z,18.60
2017-08-25T03:24:58.387Z,18.50
2017-08-25T03:27:26.079Z,18.30
2017-08-25T03:29:53.811Z,18.20
2017-08-25T03:32:21.398Z,18.20
2017-08-25T03:34:48.988Z,18.10
2017-08-25T03:37:16.638Z,18.10
2017-08-25T03:39:44.240Z,18.10
2017-08-25T03:42:11.826Z,18.00
2017-08-25T03:44:39.756Z,17.90
2017-08-25T03:47:07.339Z,17.90
2017-08-25T03:49:34.940Z,18.20
2017-08-25T03:52:02.524Z,18.60
2017-08-25T03:54:30.850Z,18.40
2017-08-25T03:56:58.503Z,18.10
2017-08-25T03:59:26.089Z,18.00
2017-08-25T04:01:53.661Z,17.90
2017-08-25T04:04:22.613Z,17.80
2017-08-25T04:06:51.688Z,17.70
2017-08-25T04:09:19.375Z,17.90
2017-08-25T04:11:47.027Z,17.70
2017-08-25T04:14:14.918Z,17.60
2017-08-25T04:16:42.523Z,17.60
2017-08-25T04:19:10.959Z,17.60
2017-08-25T04:21:38.572Z,17.50
2017-08-25T04:24:06.151Z,17.50
2017-08-25T04:26:33.767Z,17.60
2017-08-25T04:29:01.396Z,17.60
2017-08-25T04:31:28.987Z,17.50
2017-08-25T04:33:57.376Z,17.90
2017-08-25T04:36:24.971Z,17.90
2017-08-25T04:38:52.578Z,17.70
2017-08-25T04:41:20.184Z,17.60
2017-08-25T04:43:47.765Z,17.60
2017-08-25T04:46:15.407Z,17.60
2017-08-25T04:48:43.009Z,17.60
2017-08-25T04:51:11.306Z,17.60
2017-08-25T04:53:38.976Z,17.70
2017-08-25T04:56:06.563Z,17.70
2017-08-25T04:58:34.179Z,17.80
2017-08-25T05:01:01.789Z,17.90
2017-08-25T05:03:29.379Z,17.80
2017-08-25T05:05:57.870Z,17.70
2017-08-25T05:08:25.451Z,17.70
2017-08-25T05:10:53.096Z,17.80
2017-08-25T05:13:20.680Z,17.80
2017-08-25T05:15:48.336Z,17.90
2017-08-25T05:18:15.913Z,17.90
2017-08-25T05:20:43.584Z,17.90
2017-08-25T05:23:11.196Z,18.00
2017-08-25T05:25:39.577Z,18.00
2017-08-25T05:28:07.173Z,18.00
2017-08-25T05:30:34.735Z,18.00
2017-08-25T05:33:02.300Z,18.20
2017-08-25T05:35:30.038Z,18.70
2017-08-25T05:37:57.600Z,18.60
2017-08-25T05:40:25.199Z,18.60
2017-08-25T05:42:52.755Z,18.20
2017-08-25T05:45:20.315Z,18.00
2017-08-25T05:47:47.907Z,18.10
2017-08-25T05:50:16.448Z,18.10
2017-08-25T05:52:44.007Z,18.10
2017-08-25T05:55:11.636Z,18.00
2017-08-25T05:57:39.211Z,18.00
2017-08-25T06:00:06.851Z,18.00
2017-08-25T06:02:34.411Z,18.10
2017-08-25T06:05:02.006Z,18.50
2017-08-25T06:07:29.598Z,18.70
2017-08-25T06:09:57.169Z,18.80
2017-08-25T06:12:24.946Z,18.80
2017-08-25T06:14:52.523Z,19.10
2017-08-25T06:17:20.135Z,19.20
2017-08-25T06:19:47.694Z,19.20
2017-08-25T06:22:15.255Z,19.20
2017-08-25T06:24:42.842Z,19.30
2017-08-25T06:27:10.408Z,19.40
2017-08-25T06:29:37.998Z,19.50
2017-08-25T06:32:05.587Z,19.40
2017-08-25T06:34:33.177Z,19.30
2017-08-25T06:37:00.735Z,19.40
2017-08-25T06:39:28.347Z,19.50
2017-08-25T06:41:55.915Z,19.60
2017-08-25T06:44:23.467Z,19.90
2017-08-25T06:46:51.051Z,20.20
2017-08-25T06:49:18.652Z,20.00
2017-08-25T06:51:46.257Z,20.00
2017-08-25T06:54:13.816Z,20.30
2017-08-25T06:56:41.384Z,20.40
2017-08-25T06:59:08.976Z,20.30
2017-08-25T07:01:36.543Z,20.10
2017-08-25T07:04:04.155Z,20.30
2017-08-25T07:06:31.715Z,20.70
2017-08-25T07:08:59.315Z,20.80
2017-08-25T07:11:26.939Z,20.90
2017-08-25T07:13:54.530Z,20.90
2017-08-25T07:16:22.144Z,20.60
2017-08-25T07:18:49.741Z,20.30
2017-08-25T07:21:17.307Z,20.70
2017-08-25T07:23:44.911Z,20.80
2017-08-25T07:26:12.478Z,21.60
2017-08-25T07:28:40.047Z,22.10
2017-08-25T07:31:07.739Z,23.00
2017-08-25T07:33:35.311Z,23.20
2017-08-25T07:36:02.876Z,24.20
2017-08-25T07:38:30.465Z,24.80
2017-08-25T07:40:58.171Z,25.20
2017-08-25T07:43:25.767Z,24.90
2017-08-25T07:45:53.315Z,23.80
2017-08-25T07:48:20.899Z,23.40
2017-08-25T07:50:49.254Z,24.20
2017-08-25T07:53:16.820Z,24.20
2017-08-25T07:55:44.407Z,25.00
2017-08-25T07:58:12.015Z,26.30
2017-08-25T08:00:39.623Z,26.10
2017-08-25T08:03:07.311Z,27.10
2017-08-25T08:05:34.887Z,27.30
2017-08-25T08:08:02.487Z,26.80
2017-08-25T08:10:30.101Z,25.20
2017-08-25T08:12:57.667Z,26.50
2017-08-25T08:15:25.227Z,27.50
2017-08-25T08:17:52.815Z,27.20
2017-08-25T08:20:20.408Z,29.10
2017-08-25T08:22:47.986Z,27.50
2017-08-25T08:25:15.576Z,27.20
2017-08-25T08:27:43.187Z,27.40
2017-08-25T08:30:10.791Z,27.90
2017-08-25T08:32:38.586Z,27.70
2017-08-25T08:35:06.154Z,26.70
2017-08-25T08:37:33.751Z,27.00
2017-08-25T08:40:01.338Z,27.80
2017-08-25T08:42:28.939Z,27.30
2017-08-25T08:44:56.512Z,26.60
2017-08-25T08:47:24.075Z,28.40
2017-08-25T08:49:51.679Z,29.80
2017-08-25T08:52:19.243Z,30.10
2017-08-25T08:54:46.842Z,30.00
2017-08-25T08:57:14.419Z,30.90
2017-08-25T08:59:42.021Z,30.90
2017-08-25T09:02:09.618Z,30.40
2017-08-25T09:04:37.179Z,30.70
2017-08-25T09:07:05.532Z,31.20
2017-08-25T09:09:33.813Z,30.20
2017-08-25T09:12:01.553Z,30.20
2017-08-25T09:14:29.144Z,29.60
2017-08-25T09:16:56.899Z,30.00
2017-08-25T09:19:24.472Z,31.00
2017-08-25T09:24:40.511Z,30.40
2017-08-25T09:27:08.073Z,30.40
2017-08-25T09:29:35.636Z,31.20
2017-08-25T09:32:03.310Z,32.10
2017-08-25T09:34:30.871Z,31.40
2017-08-25T09:36:58.497Z,30.70
2017-08-25T09:39:26.055Z,31.20
2017-08-25T09:41:53.671Z,30.80
2017-08-25T09:44:21.232Z,30.70
2017-08-25T09:46:57.554Z,29.90
2017-08-25T09:49:25.115Z,30.80
2017-08-25T09:51:53.346Z,29.20
2017-08-25T09:54:20.963Z,30.80
2017-08-25T09:56:49.388Z,31.20
2017-08-25T09:59:16.969Z,31.70
2017-08-25T10:01:44.562Z,32.70
2017-08-25T10:04:12.896Z,32.90
2017-08-25T10:06:40.499Z,32.80
2017-08-25T10:09:08.063Z,33.60
2017-08-25T10:11:35.655Z,32.50
2017-08-25T10:14:03.226Z,31.90
2017-08-25T10:16:30.798Z,32.60
2017-08-25T10:21:48.921Z,32.10
2017-08-25T10:24:17.259Z,30.70
2017-08-25T10:26:44.865Z,30.60
2017-08-25T10:29:12.456Z,31.80
2017-08-25T10:31:40.061Z,32.10
2017-08-25T10:34:19.672Z,31.50
2017-08-25T10:36:59.129Z,32.20
2017-08-25T10:39:38.551Z,32.90
2017-08-25T10:42:18.059Z,32.80
2017-08-25T10:44:48.488Z,33.20
2017-08-25T10:47:16.075Z,32.00
2017-08-25T10:49:43.692Z,31.80
2017-08-25T10:52:11.263Z,30.50
2017-08-25T10:54:38.835Z,32.00
2017-08-25T10:57:06.422Z,32.50
2017-08-25T10:59:33.987Z,32.80
2017-08-25T11:02:01.580Z,32.30
2017-08-25T11:04:29.139Z,33.40
2017-08-25T11:06:56.732Z,34.00
2017-08-25T11:09:24.336Z,33.70
2017-08-25T11:11:51.924Z,33.10
2017-08-25T11:14:19.535Z,32.50
2017-08-25T11:16:47.100Z,32.60
2017-08-25T11:19:14.695Z,32.70
2017-08-25T11:21:42.247Z,33.50
2017-08-25T11:24:09.808Z,33.30
2017-08-25T11:26:37.407Z,31.50
2017-08-25T11:29:05.008Z,31.40
2017-08-25T11:31:32.716Z,31.90
2017-08-25T11:34:00.279Z,32.60
2017-08-25T11:36:27.867Z,32.70
2017-08-25T11:38:55.476Z,33.50
2017-08-25T11:41:23.052Z,34.00
2017-08-25T11:43:50.650Z,33.70
2017-08-25T11:46:18.211Z,33.10
2017-08-25T11:48:45.816Z,32.00
2017-08-25T11:51:13.608Z,32.00
2017-08-25T11:53:41.163Z,31.50
2017-08-25T11:56:08.775Z,31.30
2017-08-25T11:58:36.346Z,31.10
2017-08-25T12:01:03.915Z,31.70
2017-08-25T12:03:31.595Z,32.40
2017-08-25T12:05:59.163Z,31.50
2017-08-25T12:08:26.758Z,30.00
2017-08-25T12:10:54.472Z,29.40
2017-08-25T12:13:22.131Z,30.10
2017-08-25T12:15:50.500Z,30.00
2017-08-25T12:18:18.061Z,30.00
2017-08-25T12:20:45.630Z,29.40
2017-08-25T12:23:13.220Z,29.70
2017-08-25T12:25:40.787Z,29.90
2017-08-25T12:28:08.391Z,29.60
2017-08-25T12:30:35.959Z,29.40
2017-08-25T12:33:03.536Z,29.80
2017-08-25T12:35:31.168Z,30.50
2017-08-25T12:37:58.743Z,30.10
2017-08-25T12:40:26.321Z,29.30
2017-08-25T12:42:53.999Z,29.30
2017-08-25T12:45:21.561Z,29.90
2017-08-25T12:47:49.155Z,30.30
2017-08-25T12:50:16.719Z,30.40
2017-08-25T12:52:44.276Z,30.40
2017-08-25T12:55:11.871Z,30.10
2017-08-25T12:57:39.496Z,29.30
2017-08-25T13:00:07.285Z,29.50
2017-08-25T13:02:34.939Z,29.20
2017-08-25T13:05:02.625Z,29.00
2017-08-25T13:07:30.412Z,29.20
2017-08-25T13:09:57.971Z,28.90
2017-08-25T13:12:25.635Z,29.10
2017-08-25T13:14:53.242Z,29.20
2017-08-25T13:17:20.815Z,29.60
2017-08-25T13:19:48.382Z,30.20
2017-08-25T13:22:15.979Z,30.20
2017-08-25T13:24:43.552Z,30.70
2017-08-25T13:27:11.154Z,30.50
2017-08-25T13:29:38.759Z,30.00
2017-08-25T13:32:06.395Z,30.60
2017-08-25T13:34:34.000Z,30.80
2017-08-25T13:37:02.089Z,31.30
2017-08-25T13:39:29.699Z,31.50
2017-08-25T13:41:58.184Z,31.40
2017-08-25T13:44:25.816Z,31.30
2017-08-25T13:46:53.413Z,31.10
2017-08-25T13:49:21.210Z,30.70
2017-08-25T13:51:48.836Z,30.20
2017-08-25T13:54:16.701Z,30.30
2017-08-25T13:56:44.310Z,30.20
2017-08-25T13:59:11.939Z,30.20
2017-08-25T14:01:39.499Z,29.90
2017-08-25T14:04:07.069Z,30.70
2017-08-25T14:06:34.676Z,30.20
2017-08-25T14:09:02.231Z,30.00
2017-08-25T14:11:29.835Z,29.90
2017-08-25T14:13:57.396Z,29.70
2017-08-25T14:16:24.960Z,30.30
2017-08-25T14:18:52.555Z,31.30
2017-08-25T14:21:20.120Z,30.90
2017-08-25T14:23:47.710Z,30.50
2017-08-25T14:26:15.283Z,30.30
2017-08-25T14:28:42.868Z,30.80
2017-08-25T14:31:10.443Z,30.90
2017-08-25T14:33:38.039Z,30.90
2017-08-25T14:36:05.641Z,30.80
2017-08-25T14:38:33.992Z,30.70
2017-08-25T14:41:01.770Z,30.70
2017-08-25T14:43:29.345Z,30.80
2017-08-25T14:45:56.913Z,30.70
2017-08-25T14:48:24.511Z,30.70
2017-08-25T14:50:52.159Z,30.90
2017-08-25T14:53:19.733Z,30.70
2017-08-25T14:55:47.358Z,30.60
2017-08-25T14:58:14.976Z,30.40
2017-08-25T15:00:42.545Z,30.40
2017-08-25T15:03:10.111Z,30.40
2017-08-25T15:05:37.706Z,30.40
2017-08-25T15:08:05.300Z,30.30
2017-08-25T15:10:32.923Z,30.20
2017-08-25T15:13:00.492Z,30.30
2017-08-25T15:15:28.058Z,30.40
2017-08-25T15:17:55.670Z,30.30
2017-08-25T15:20:23.243Z,30.40
2017-08-25T15:22:50.809Z,30.40
2017-08-25T15:25:18.403Z,30.40
2017-08-25T15:27:45.996Z,30.40
2017-08-25T15:30:13.564Z,30.40
2017-08-25T15:32:41.139Z,30.20
2017-08-25T15:35:08.816Z,30.20
2017-08-25T15:37:36.391Z,30.40
2017-08-25T15:40:04.005Z,30.60
2017-08-25T15:42:31.571Z,31.00
2017-08-25T15:44:59.167Z,31.10
2017-08-25T15:47:27.299Z,30.90
2017-08-25T15:49:55.049Z,31.20
2017-08-25T15:52:22.666Z,31.00
2017-08-25T15:54:50.242Z,31.10
2017-08-25T15:57:17.858Z,31.30
2017-08-25T15:59:45.441Z,31.40
2017-08-25T16:02:13.022Z,31.40
2017-08-25T16:04:40.648Z,31.60
2017-08-25T16:07:08.296Z,31.60
2017-08-25T16:09:35.955Z,31.50
2017-08-25T16:12:03.536Z,31.20
2017-08-25T16:14:34.019Z,30.90
2017-08-25T16:17:01.746Z,30.50
2017-08-25T16:19:29.313Z,31.00
2017-08-25T16:21:56.912Z,31.50
2017-08-25T16:24:24.495Z,31.20
2017-08-25T16:26:52.064Z,31.30
2017-08-25T16:29:19.646Z,31.20
2017-08-25T16:31:47.228Z,31.20
2017-08-25T16:34:14.835Z,31.30
2017-08-25T16:36:42.397Z,31.10
2017-08-25T16:39:09.956Z,31.00
2017-08-25T16:41:37.563Z,30.70
2017-08-25T16:44:05.145Z,30.40
2017-08-25T16:46:32.722Z,30.30
2017-08-25T16:49:00.327Z,30.20
2017-08-25T16:51:27.907Z,30.00
2017-08-25T16:53:55.561Z,29.90
2017-08-25T16:56:23.143Z,29.70
2017-08-25T16:58:50.773Z,29.60
2017-08-25T17:01:18.337Z,29.50
2017-08-25T17:03:45.935Z,29.40
2017-08-25T17:06:13.550Z,29.40
2017-08-25T17:08:41.116Z,29.40
2017-08-25T17:11:08.683Z,29.50
2017-08-25T17:13:36.302Z,29.30
2017-08-25T17:16:03.867Z,29.30
2017-08-25T17:18:31.467Z,29.30
2017-08-25T17:20:59.037Z,29.30
2017-08-25T17:23:26.653Z,29.30
2017-08-25T17:25:55.018Z,29.20
2017-08-25T17:28:22.599Z,29.20
2017-08-25T17:30:50.203Z,29.10
2017-08-25T17:33:17.773Z,29.20
2017-08-25T17:35:45.392Z,29.10
2017-08-25T17:38:12.971Z,29.10
2017-08-25T17:40:40.586Z,29.10
2017-08-25T17:43:08.185Z,28.90
2017-08-25T17:45:35.752Z,28.80
2017-08-25T17:48:03.318Z,28.80
2017-08-25T17:50:30.912Z,28.80
2017-08-25T17:52:58.511Z,28.80
2017-08-25T17:55:26.130Z,28.80
2017-08-25T17:57:53.705Z,28.80
2017-08-25T18:00:21.275Z,28.60
2017-08-25T18:02:48.991Z,28.30
2017-08-25T18:05:16.624Z,28.10
2017-08-25T18:07:44.200Z,28.10
2017-08-25T18:10:11.819Z,28.10
2017-08-25T18:12:39.404Z,27.80
2017-08-25T18:15:06.977Z,27.70
2017-08-25T18:17:34.578Z,27.70
2017-08-25T18:20:02.145Z,27.50
2017-08-25T18:22:29.750Z,27.50
2017-08-25T18:24:57.324Z,27.50
2017-08-25T18:27:24.956Z,27.40
2017-08-25T18:29:52.532Z,27.30
2017-08-25T18:32:20.114Z,27.30
2017-08-25T18:34:47.714Z,27.20
2017-08-25T18:37:15.287Z,27.20
2017-08-25T18:39:42.903Z,27.20
2017-08-25T18:42:10.501Z,27.70
2017-08-25T18:44:38.100Z,27.60
2017-08-25T18:47:05.725Z,27.40
2017-08-25T18:49:33.288Z,27.00
2017-08-25T18:52:00.931Z,26.80
2017-08-25T18:54:28.556Z,26.40
2017-08-25T18:56:56.128Z,26.40
2017-08-25T18:59:23.731Z,26.20
2017-08-25T19:01:51.293Z,26.20
2017-08-25T19:04:19.024Z,26.10
2017-08-25T19:06:46.631Z,26.00
2017-08-25T19:09:14.216Z,25.80
2017-08-25T19:11:41.797Z,25.90
2017-08-25T19:14:10.675Z,25.90
2017-08-25T19:16:38.243Z,26.30
2017-08-25T19:19:05.846Z,26.60
2017-08-25T19:21:33.440Z,26.60
2017-08-25T19:24:01.043Z,26.70
2017-08-25T19:26:28.659Z,26.60
2017-08-25T19:28:56.247Z,26.60
2017-08-25T19:31:23.875Z,26.40
2017-08-25T19:33:51.456Z,26.40
2017-08-25T19:36:19.107Z,26.10
2017-08-25T19:38:46.667Z,25.90
2017-08-25T19:41:14.264Z,25.60
2017-08-25T19:43:41.869Z,25.50
2017-08-25T19:46:09.443Z,25.30
2017-08-25T19:48:37.072Z,25.20
2017-08-25T19:51:04.640Z,25.10
2017-08-25T19:53:32.276Z,25.60
2017-08-25T19:55:59.876Z,25.60
2017-08-25T19:58:27.436Z,25.00
2017-08-25T20:00:55.047Z,24.90
2017-08-25T20:03:22.616Z,24.80
2017-08-25T20:05:50.210Z,24.70
2017-08-25T20:08:17.799Z,25.30
2017-08-25T20:10:45.367Z,25.30
2017-08-25T20:13:13.083Z,25.20
2017-08-25T20:15:40.663Z,24.80
2017-08-25T20:18:08.244Z,24.50
2017-08-25T20:20:35.863Z,24.40
2017-08-25T20:23:03.432Z,24.50
2017-08-25T20:25:31.057Z,24.90
2017-08-25T20:27:58.628Z,25.30
2017-08-25T20:30:26.244Z,25.40
2017-08-25T20:32:53.882Z,25.40
2017-08-25T20:35:21.460Z,25.40
2017-08-25T20:37:49.063Z,25.30
2017-08-25T20:40:16.684Z,25.20
2017-08-25T20:42:44.260Z,25.30
2017-08-25T20:45:11.879Z,25.20
2017-08-25T20:47:39.464Z,25.00
2017-08-25T20:50:07.036Z,25.10
2017-08-25T20:52:35.480Z,24.40
2017-08-25T20:55:03.059Z,24.40
2017-08-25T20:57:30.645Z,24.00
2017-08-25T20:59:58.255Z,23.70
2017-08-25T21:02:25.870Z,23.80
2017-08-25T21:04:53.508Z,23.80
2017-08-25T21:07:21.079Z,24.10
2017-08-25T21:09:48.680Z,24.50
2017-08-25T21:12:16.293Z,24.60
2017-08-25T21:14:44.664Z,24.40
2017-08-25T21:17:12.351Z,24.30
2017-08-25T21:19:39.939Z,24.30
2017-08-25T21:22:07.511Z,24.00
2017-08-25T21:24:35.124Z,24.10
2017-08-25T21:27:03.014Z,24.40
2017-08-25T21:29:30.594Z,24.60
2017-08-25T21:31:58.228Z,24.80
2017-08-25T21:34:25.830Z,24.80
2017-08-25T21:36:53.407Z,24.60
2017-08-25T21:39:21.039Z,24.40
2017-08-25T21:41:48.607Z,24.10
2017-08-25T21:44:16.190Z,23.70
2017-08-25T21:46:43.810Z,23.50
2017-08-25T21:49:11.504Z,23.30
2017-08-25T21:51:39.075Z,23.50
2017-08-25T21:54:06.667Z,23.40
2017-08-25T21:56:34.248Z,23.60
2017-08-25T21:59:01.858Z,23.50
2017-08-25T22:01:29.432Z,24.00
2017-08-25T22:03:57.060Z,24.20
2017-08-25T22:06:24.679Z,23.80
2017-08-25T22:08:52.246Z,23.30
2017-08-25T22:11:19.919Z,23.00
2017-08-25T22:13:47.499Z,23.00
2017-08-25T22:16:15.062Z,22.90
2017-08-25T22:18:42.651Z,23.20
2017-08-25T22:21:10.219Z,23.80
2017-08-25T22:23:37.807Z,23.30
2017-08-25T22:26:05.542Z,23.10
2017-08-25T22:28:33.119Z,23.10
2017-08-25T22:31:00.951Z,23.70
2017-08-25T22:33:28.524Z,23.70
2017-08-25T22:35:56.107Z,23.40
2017-08-25T22:38:23.711Z,23.10
2017-08-25T22:40:51.280Z,23.00
2017-08-25T22:43:18.880Z,23.10
2017-08-25T22:45:46.467Z,23.00
2017-08-25T22:48:14.057Z,23.40
2017-08-25T22:50:41.661Z,23.60
2017-08-25T22:53:09.234Z,23.70
2017-08-25T22:55:36.806Z,23.10
2017-08-25T22:58:05.427Z,22.60
2017-08-25T23:00:33.010Z,22.40
2017-08-25T23:03:00.602Z,22.30
2017-08-25T23:05:28.178Z,22.30
2017-08-25T23:07:55.791Z,22.70
2017-08-25T23:10:23.504Z,22.70
2017-08-25T23:12:51.087Z,23.10
2017-08-25T23:15:18.686Z,23.20
2017-08-25T23:17:46.260Z,23.10
2017-08-25T23:20:13.826Z,23.20
2017-08-25T23:22:41.426Z,23.20
2017-08-25T23:25:08.996Z,23.00
2017-08-25T23:27:36.603Z,22.80
2017-08-25T23:30:04.190Z,22.50
2017-08-25T23:32:31.763Z,22.20
2017-08-25T23:34:59.363Z,22.00
2017-08-25T23:37:26.927Z,22.00
2017-08-25T23:39:54.575Z,22.50
2017-08-25T23:42:22.147Z,22.80
2017-08-25T23:44:49.715Z,22.80
2017-08-25T23:47:17.319Z,22.70
2017-08-25T23:49:44.911Z,22.10
2017-08-25T23:52:12.498Z,21.90
2017-08-25T23:54:40.064Z,21.70
2017-08-25T23:57:07.683Z,21.80
2017-08-25T23:59:35.260Z,22.30
